createdAt,value
2019-01-12T00:01:27.360Z,5.30
2019-01-12T00:03:55.783Z,5.30
2019-01-12T00:06:24.211Z,5.40
2019-01-12T00:08:52.628Z,5.40
2019-01-12T00:11:21.024Z,5.40
2019-01-12T00:13:49.454Z,5.40
2019-01-12T00:16:17.860Z,5.50
2019-01-12T00:18:46.278Z,5.50
2019-01-12T00:21:14.703Z,5.50
2019-01-12T00:23:43.332Z,5.50
2019-01-12T00:26:11.803Z,5.50
2019-01-12T00:28:40.192Z,5.50
2019-01-12T00:31:08.626Z,5.50
2019-01-12T00:33:37.040Z,5.60
2019-01-12T00:36:05.439Z,5.50
2019-01-12T00:38:33.867Z,5.60
2019-01-12T00:41:02.272Z,5.60
2019-01-12T00:43:30.675Z,5.60
2019-01-12T00:45:59.076Z,5.60
2019-01-12T00:48:27.509Z,5.60
2019-01-12T00:50:55.924Z,5.60
2019-01-12T00:53:24.375Z,5.60
2019-01-12T00:55:52.826Z,5.60
2019-01-12T00:58:21.244Z,5.70
2019-01-12T01:00:49.645Z,5.60
2019-01-12T01:03:18.363Z,5.70
2019-01-12T01:05:46.773Z,5.70
2019-01-12T01:08:15.240Z,5.70
2019-01-12T01:10:43.659Z,5.70
2019-01-12T01:13:12.067Z,5.70
2019-01-12T01:15:40.481Z,5.70
2019-01-12T01:18:09.128Z,5.70
2019-01-12T01:20:37.631Z,5.70
2019-01-12T01:23:06.125Z,5.70
2019-01-12T01:25:34.520Z,5.70
2019-01-12T01:28:03.015Z,5.70
2019-01-12T01:30:31.451Z,5.70
2019-01-12T01:32:59.953Z,5.70
2019-01-12T01:35:28.393Z,5.70
2019-01-12T01:37:56.828Z,5.70
2019-01-12T01:40:25.220Z,5.70
2019-01-12T01:42:53.611Z,5.70
2019-01-12T01:45:22.052Z,5.70
2019-01-12T01:47:50.532Z,5.70
2019-01-12T01:50:19.012Z,5.70
2019-01-12T01:52:48.403Z,5.70
2019-01-12T01:55:16.984Z,5.70
2019-01-12T01:57:45.434Z,5.70
2019-01-12T02:00:16.039Z,5.70
2019-01-12T02:02:44.471Z,5.70
2019-01-12T02:05:13.308Z,5.80
2019-01-12T02:07:41.799Z,5.80
2019-01-12T02:10:13.741Z,5.80
2019-01-12T02:12:42.171Z,5.80
2019-01-12T02:15:12.416Z,5.80
2019-01-12T02:17:40.828Z,5.80
2019-01-12T02:20:09.604Z,5.80
2019-01-12T02:22:38.025Z,5.80
2019-01-12T02:25:08.668Z,5.80
2019-01-12T02:27:37.088Z,5.80
2019-01-12T02:30:11.268Z,5.80
2019-01-12T02:32:39.685Z,5.80
2019-01-12T02:35:08.353Z,5.80
2019-01-12T02:37:36.770Z,5.80
2019-01-12T02:40:06.684Z,5.90
2019-01-12T02:42:35.099Z,5.80
2019-01-12T02:45:03.765Z,5.90
2019-01-12T02:47:32.189Z,5.80
2019-01-12T02:50:00.604Z,5.80
2019-01-12T02:52:29.048Z,5.90
2019-01-12T02:54:57.469Z,5.80
2019-01-12T02:57:25.887Z,5.80
2019-01-12T02:59:54.307Z,5.80
2019-01-12T03:02:22.773Z,5.90
2019-01-12T03:04:55.636Z,5.90
2019-01-12T03:07:24.257Z,5.90
2019-01-12T03:09:52.672Z,5.80
2019-01-12T03:12:21.088Z,5.80
2019-01-12T03:14:49.516Z,5.90
2019-01-12T03:17:17.918Z,5.90
2019-01-12T03:19:46.343Z,5.90
2019-01-12T03:22:14.764Z,5.90
2019-01-12T03:24:43.185Z,5.90
2019-01-12T03:27:11.616Z,5.90
2019-01-12T03:29:40.013Z,5.90
2019-01-12T03:32:08.448Z,5.90
2019-01-12T03:34:36.878Z,5.90
2019-01-12T03:37:05.303Z,5.90
2019-01-12T03:39:33.735Z,5.90
2019-01-12T03:42:02.139Z,5.90
2019-01-12T03:44:30.576Z,5.90
2019-01-12T03:46:58.983Z,5.90
2019-01-12T03:49:27.400Z,5.90
2019-01-12T03:51:55.864Z,5.90
2019-01-12T03:54:24.296Z,5.90
2019-01-12T03:56:53.797Z,5.90
2019-01-12T03:59:24.735Z,5.90
2019-01-12T04:01:54.660Z,6.00
2019-01-12T04:04:23.138Z,6.00
2019-01-12T04:06:51.733Z,6.00
2019-01-12T04:09:20.165Z,6.00
2019-01-12T04:11:48.872Z,6.00
2019-01-12T04:14:17.267Z,6.00
2019-01-12T04:16:45.700Z,6.00
2019-01-12T04:19:15.838Z,6.10
2019-01-12T04:21:45.925Z,6.10
2019-01-12T04:24:14.427Z,6.10
2019-01-12T04:26:42.980Z,6.10
2019-01-12T04:29:11.500Z,6.10
2019-01-12T04:31:39.986Z,6.00
2019-01-12T04:34:08.422Z,6.00
2019-01-12T04:36:36.871Z,6.00
2019-01-12T04:39:07.347Z,6.00
2019-01-12T04:41:35.729Z,6.10
2019-01-12T04:44:04.176Z,6.00
2019-01-12T04:46:32.816Z,6.10
2019-01-12T04:49:01.241Z,6.00
2019-01-12T04:51:29.637Z,6.00
2019-01-12T04:53:58.074Z,6.00
2019-01-12T04:56:26.489Z,6.00
2019-01-12T04:58:54.883Z,6.00
2019-01-12T05:01:23.311Z,6.00
2019-01-12T05:03:51.710Z,6.00
2019-01-12T05:06:20.128Z,6.00
2019-01-12T05:08:48.528Z,6.00
2019-01-12T05:11:16.968Z,5.90
2019-01-12T05:13:45.364Z,5.90
2019-01-12T05:16:13.793Z,5.90
2019-01-12T05:18:42.459Z,5.90
2019-01-12T05:21:10.883Z,5.90
2019-01-12T05:23:39.311Z,5.90
2019-01-12T05:26:07.721Z,6.00
2019-01-12T05:28:36.146Z,5.90
2019-01-12T05:31:04.789Z,5.90
2019-01-12T05:33:33.211Z,5.90
2019-01-12T05:36:01.600Z,5.90
2019-01-12T05:38:30.023Z,5.90
2019-01-12T05:40:58.428Z,5.90
2019-01-12T05:43:26.856Z,5.90
2019-01-12T05:45:55.275Z,5.90
2019-01-12T05:48:23.699Z,5.90
2019-01-12T05:50:52.133Z,5.90
2019-01-12T05:53:20.540Z,5.90
2019-01-12T05:55:56.619Z,5.90
2019-01-12T05:58:19.123Z,5.90
2019-01-12T06:00:47.544Z,5.90
2019-01-12T06:03:15.945Z,5.90
2019-01-12T06:05:44.365Z,5.90
2019-01-12T06:08:12.783Z,5.90
2019-01-12T06:10:41.180Z,5.90
2019-01-12T06:13:09.600Z,5.80
2019-01-12T06:15:37.996Z,5.90
2019-01-12T06:18:06.411Z,5.80
2019-01-12T06:20:34.827Z,5.80
2019-01-12T06:23:03.243Z,5.80
2019-01-12T06:25:31.645Z,5.80
2019-01-12T06:28:00.096Z,5.80
2019-01-12T06:30:28.517Z,5.80
2019-01-12T06:32:56.943Z,5.80
2019-01-12T06:35:25.339Z,5.80
2019-01-12T06:37:53.764Z,5.80
2019-01-12T06:40:22.188Z,5.80
2019-01-12T06:42:50.584Z,5.80
2019-01-12T06:45:19.167Z,5.80
2019-01-12T06:47:47.613Z,5.80
2019-01-12T06:50:17.354Z,5.80
2019-01-12T06:52:45.783Z,5.80
2019-01-12T06:55:14.199Z,5.80
2019-01-12T06:57:42.596Z,5.80
2019-01-12T07:00:16.364Z,5.80
2019-01-12T07:02:44.860Z,5.80
2019-01-12T07:05:13.339Z,5.80
2019-01-12T07:07:41.822Z,5.80
2019-01-12T07:10:12.152Z,5.80
2019-01-12T07:12:40.571Z,5.80
2019-01-12T07:15:11.299Z,5.80
2019-01-12T07:17:39.697Z,5.80
2019-01-12T07:20:11.276Z,5.80
2019-01-12T07:22:39.671Z,5.80
2019-01-12T07:25:08.152Z,5.80
2019-01-12T07:27:36.651Z,5.80
2019-01-12T07:30:16.560Z,5.80
2019-01-12T07:32:44.970Z,5.80
2019-01-12T07:35:13.460Z,5.80
2019-01-12T07:37:42.012Z,5.80
2019-01-12T07:40:10.525Z,5.80
2019-01-12T07:42:38.998Z,5.90
2019-01-12T07:45:08.968Z,5.80
2019-01-12T07:47:37.532Z,5.80
2019-01-12T07:50:09.271Z,5.80
2019-01-12T07:52:37.672Z,5.80
2019-01-12T07:55:07.229Z,5.80
2019-01-12T07:57:35.636Z,5.80
2019-01-12T08:00:07.166Z,5.90
2019-01-12T08:02:35.575Z,5.80
2019-01-12T08:05:04.731Z,5.80
2019-01-12T08:07:33.164Z,5.80
2019-01-12T08:10:01.551Z,5.80
2019-01-12T08:12:29.997Z,5.80
2019-01-12T08:14:58.387Z,5.80
2019-01-12T08:17:26.815Z,5.80
2019-01-12T08:19:55.247Z,5.80
2019-01-12T08:22:23.697Z,5.80
2019-01-12T08:24:52.099Z,5.80
2019-01-12T08:27:20.736Z,5.80
2019-01-12T08:29:49.165Z,5.80
2019-01-12T08:32:17.587Z,5.80
2019-01-12T08:34:46.004Z,5.70
2019-01-12T08:37:14.427Z,5.70
2019-01-12T08:39:42.845Z,5.70
2019-01-12T08:42:11.263Z,5.70
2019-01-12T08:44:39.691Z,5.70
2019-01-12T08:47:08.204Z,5.60
2019-01-12T08:49:36.660Z,5.60
2019-01-12T08:52:05.324Z,5.60
2019-01-12T08:54:33.767Z,5.60
2019-01-12T08:57:05.219Z,5.60
2019-01-12T08:59:33.651Z,5.60
2019-01-12T09:02:02.674Z,5.50
2019-01-12T09:04:31.162Z,5.50
2019-01-12T09:06:59.651Z,5.50
2019-01-12T09:09:28.671Z,5.50
2019-01-12T09:11:57.130Z,5.50
2019-01-12T09:14:25.565Z,5.50
2019-01-12T09:16:55.514Z,5.50
2019-01-12T09:19:23.948Z,5.60
2019-01-12T09:21:52.389Z,5.60
2019-01-12T09:24:20.799Z,5.60
2019-01-12T09:26:50.752Z,5.60
2019-01-12T09:29:20.543Z,5.60
2019-01-12T09:31:50.699Z,5.60
2019-01-12T09:34:20.791Z,5.60
2019-01-12T09:36:49.351Z,5.60
2019-01-12T09:39:17.855Z,5.60
2019-01-12T09:41:46.280Z,5.60
2019-01-12T09:44:14.695Z,5.60
2019-01-12T09:46:43.506Z,5.60
2019-01-12T09:49:11.952Z,5.60
2019-01-12T09:51:40.458Z,5.60
2019-01-12T09:54:08.861Z,5.60
2019-01-12T09:56:37.275Z,5.60
2019-01-12T09:59:05.704Z,5.60
2019-01-12T10:01:34.135Z,5.60
2019-01-12T10:04:02.535Z,5.60
2019-01-12T10:06:30.948Z,5.60
2019-01-12T10:08:59.364Z,5.60
2019-01-12T10:11:27.835Z,5.60
2019-01-12T10:13:56.239Z,5.60
2019-01-12T10:16:24.639Z,5.60
2019-01-12T10:18:53.079Z,5.60
2019-01-12T10:21:21.475Z,5.60
2019-01-12T10:23:50.140Z,5.60
2019-01-12T10:26:18.531Z,5.60
2019-01-12T10:28:46.951Z,5.60
2019-01-12T10:31:15.356Z,5.60
2019-01-12T10:33:43.840Z,5.60
2019-01-12T10:36:12.241Z,5.60
2019-01-12T10:38:40.639Z,5.60
2019-01-12T10:41:09.136Z,5.60
2019-01-12T10:43:37.568Z,5.60
2019-01-12T10:46:06.288Z,5.60
2019-01-12T10:48:34.783Z,5.60
2019-01-12T10:51:03.208Z,5.60
2019-01-12T10:53:31.611Z,5.60
2019-01-12T10:56:00.047Z,5.60
2019-01-12T10:58:28.444Z,5.60
2019-01-12T11:00:56.952Z,5.60
2019-01-12T11:03:25.604Z,5.60
2019-01-12T11:05:54.258Z,5.60
2019-01-12T11:08:23.035Z,5.60
2019-01-12T11:10:51.694Z,5.60
2019-01-12T11:13:20.116Z,5.60
2019-01-12T11:15:48.512Z,5.60
2019-01-12T11:18:16.932Z,5.60
2019-01-12T11:20:45.340Z,5.60
2019-01-12T11:23:13.832Z,5.60
2019-01-12T11:25:43.073Z,5.60
2019-01-12T11:28:11.666Z,5.60
2019-01-12T11:30:40.179Z,5.60
2019-01-12T11:33:08.660Z,5.60
2019-01-12T11:35:37.894Z,5.60
2019-01-12T11:38:06.459Z,5.60
2019-01-12T11:40:34.858Z,5.60
2019-01-12T11:43:03.273Z,5.60
2019-01-12T11:45:31.691Z,5.60
2019-01-12T11:48:00.112Z,5.70
2019-01-12T11:50:28.522Z,5.70
2019-01-12T11:52:57.114Z,5.70
2019-01-12T11:55:25.543Z,5.70
2019-01-12T11:57:53.948Z,5.70
2019-01-12T12:00:27.479Z,5.80
2019-01-12T12:02:55.973Z,5.70
2019-01-12T12:05:24.621Z,5.80
2019-01-12T12:07:53.169Z,5.80
2019-01-12T12:10:21.942Z,5.80
2019-01-12T12:12:50.415Z,5.80
2019-01-12T12:15:20.579Z,5.80
2019-01-12T12:17:49.219Z,5.80
2019-01-12T12:20:23.255Z,5.90
2019-01-12T12:22:51.791Z,5.90
2019-01-12T12:25:20.225Z,5.90
2019-01-12T12:27:48.628Z,5.90
2019-01-12T12:30:22.171Z,5.90
2019-01-12T12:32:50.680Z,5.90
2019-01-12T12:35:19.157Z,6.00
2019-01-12T12:37:47.643Z,6.00
2019-01-12T12:40:18.773Z,6.00
2019-01-12T12:42:47.185Z,6.00
2019-01-12T12:45:21.077Z,6.00
2019-01-12T12:47:49.572Z,6.00
2019-01-12T12:50:18.140Z,6.00
2019-01-12T12:52:46.691Z,6.10
2019-01-12T12:55:16.959Z,6.10
2019-01-12T12:57:45.459Z,6.10
2019-01-12T13:00:22.417Z,6.10
2019-01-12T13:02:50.863Z,6.10
2019-01-12T13:05:19.421Z,6.20
2019-01-12T13:07:47.869Z,6.20
2019-01-12T13:10:18.991Z,6.20
2019-01-12T13:12:47.389Z,6.20
2019-01-12T13:15:16.054Z,6.30
2019-01-12T13:17:44.509Z,6.30
2019-01-12T13:20:18.044Z,6.30
2019-01-12T13:22:46.741Z,6.30
2019-01-12T13:25:15.807Z,6.30
2019-01-12T13:27:44.407Z,6.40
2019-01-12T13:30:21.276Z,6.40
2019-01-12T13:32:49.839Z,6.40
2019-01-12T13:35:18.287Z,6.40
2019-01-12T13:37:47.256Z,6.40
2019-01-12T13:40:18.550Z,6.40
2019-01-12T13:42:46.965Z,6.40
2019-01-12T13:45:17.407Z,6.40
2019-01-12T13:47:45.892Z,6.50
2019-01-12T13:50:17.280Z,6.50
2019-01-12T13:52:45.689Z,6.50
2019-01-12T13:55:15.547Z,6.50
2019-01-12T13:57:47.804Z,6.50
2019-01-12T14:00:17.313Z,6.50
2019-01-12T14:02:46.193Z,6.50
2019-01-12T14:05:14.708Z,6.50
2019-01-12T14:07:43.138Z,6.50
2019-01-12T14:10:14.659Z,6.50
2019-01-12T14:12:43.162Z,6.50
2019-01-12T14:15:14.200Z,6.50
2019-01-12T14:17:42.817Z,6.50
2019-01-12T14:20:20.318Z,6.50
2019-01-12T14:22:48.862Z,6.50
2019-01-12T14:25:18.243Z,6.50
2019-01-12T14:27:46.661Z,6.50
2019-01-12T14:30:17.922Z,6.50
2019-01-12T14:32:46.470Z,6.50
2019-01-12T14:35:16.817Z,6.50
2019-01-12T14:37:45.468Z,6.50
2019-01-12T14:40:19.332Z,6.50
2019-01-12T14:42:48.265Z,6.50
2019-01-12T14:45:19.423Z,6.40
2019-01-12T14:47:47.976Z,6.50
2019-01-12T14:50:16.496Z,6.50
2019-01-12T14:52:45.007Z,6.40
2019-01-12T14:55:16.334Z,6.50
2019-01-12T14:57:44.768Z,6.50
2019-01-12T15:00:24.802Z,6.50
2019-01-12T15:02:53.265Z,6.50
2019-01-12T15:05:23.865Z,6.50
2019-01-12T15:07:52.314Z,6.50
2019-01-12T15:10:20.919Z,6.50
2019-01-12T15:12:50.388Z,6.50
2019-01-12T15:15:19.541Z,6.50
2019-01-12T15:17:48.215Z,6.50
2019-01-12T15:20:22.006Z,6.60
2019-01-12T15:22:50.404Z,6.60
2019-01-12T15:25:19.181Z,6.60
2019-01-12T15:27:47.575Z,6.60
2019-01-12T15:30:18.730Z,6.60
2019-01-12T15:32:47.131Z,6.50
2019-01-12T15:35:16.380Z,6.40
2019-01-12T15:37:44.806Z,6.40
2019-01-12T15:40:15.639Z,6.30
2019-01-12T15:42:44.133Z,6.20
2019-01-12T15:45:20.747Z,6.20
2019-01-12T15:47:49.153Z,6.10
2019-01-12T15:50:19.524Z,6.10
2019-01-12T15:52:47.941Z,6.00
2019-01-12T15:55:16.420Z,6.00
2019-01-12T15:57:44.822Z,6.00
2019-01-12T16:00:16.240Z,6.00
2019-01-12T16:02:44.727Z,6.10
2019-01-12T16:05:13.468Z,6.00
2019-01-12T16:07:42.133Z,6.10
2019-01-12T16:10:12.070Z,6.10
2019-01-12T16:12:40.496Z,6.10
2019-01-12T16:15:12.360Z,6.10
2019-01-12T16:17:40.756Z,6.20
2019-01-12T16:20:17.560Z,6.20
2019-01-12T16:22:45.961Z,6.20
2019-01-12T16:25:14.447Z,6.20
2019-01-12T16:27:42.875Z,6.10
2019-01-12T16:30:17.633Z,6.10
2019-01-12T16:32:46.016Z,6.10
2019-01-12T16:35:14.779Z,6.10
2019-01-12T16:37:43.447Z,6.20
2019-01-12T16:40:17.637Z,6.10
2019-01-12T16:42:46.283Z,6.10
2019-01-12T16:45:15.360Z,6.10
2019-01-12T16:47:43.915Z,6.00
2019-01-12T16:50:12.448Z,6.00
2019-01-12T16:52:40.872Z,6.00
2019-01-12T16:55:12.015Z,6.00
2019-01-12T16:57:40.488Z,6.00
2019-01-12T17:00:14.795Z,6.00
2019-01-12T17:02:43.219Z,5.90
2019-01-12T17:05:11.645Z,6.00
2019-01-12T17:07:40.102Z,5.90
2019-01-12T17:10:14.428Z,6.00
2019-01-12T17:12:42.823Z,6.00
2019-01-12T17:15:13.872Z,6.00
2019-01-12T17:17:42.329Z,6.00
2019-01-12T17:20:16.318Z,6.00
2019-01-12T17:22:45.556Z,6.00
2019-01-12T17:25:14.228Z,6.00
2019-01-12T17:27:42.628Z,6.00
2019-01-12T17:30:14.581Z,6.00
2019-01-12T17:32:42.976Z,6.00
2019-01-12T17:35:12.370Z,6.00
2019-01-12T17:37:40.912Z,6.00
2019-01-12T17:40:11.651Z,6.00
2019-01-12T17:42:40.141Z,5.90
2019-01-12T17:45:14.524Z,5.90
2019-01-12T17:47:42.942Z,5.80
2019-01-12T17:50:14.285Z,5.80
2019-01-12T17:52:42.712Z,5.80
2019-01-12T17:55:13.592Z,5.80
2019-01-12T17:57:42.080Z,5.80
2019-01-12T18:00:17.597Z,5.80
2019-01-12T18:02:46.378Z,5.80
2019-01-12T18:05:14.864Z,5.80
2019-01-12T18:07:43.286Z,5.80
2019-01-12T18:10:13.779Z,5.90
2019-01-12T18:12:42.182Z,5.90
2019-01-12T18:15:13.480Z,5.90
2019-01-12T18:17:42.123Z,6.00
2019-01-12T18:20:18.107Z,6.00
2019-01-12T18:22:46.591Z,6.00
2019-01-12T18:25:16.877Z,6.00
2019-01-12T18:27:45.513Z,6.00
2019-01-12T18:30:21.876Z,6.00
2019-01-12T18:32:50.388Z,6.00
2019-01-12T18:35:19.074Z,6.10
2019-01-12T18:37:47.498Z,6.10
2019-01-12T18:40:18.407Z,6.10
2019-01-12T18:42:46.880Z,6.10
2019-01-12T18:45:17.716Z,6.10
2019-01-12T18:47:46.182Z,6.10
2019-01-12T18:50:20.338Z,6.10
2019-01-12T18:52:49.088Z,6.10
2019-01-12T18:55:17.935Z,6.10
2019-01-12T18:57:46.364Z,6.10
2019-01-12T19:00:18.513Z,6.10
2019-01-12T19:02:47.350Z,6.10
2019-01-12T19:05:15.900Z,6.10
2019-01-12T19:07:44.385Z,6.10
2019-01-12T19:10:13.733Z,6.10
2019-01-12T19:12:42.489Z,6.10
2019-01-12T19:15:20.114Z,6.10
2019-01-12T19:17:48.632Z,6.10
2019-01-12T19:20:17.044Z,6.10
2019-01-12T19:22:45.526Z,6.10
2019-01-12T19:25:14.588Z,6.10
2019-01-12T19:27:43.015Z,6.10
2019-01-12T19:30:14.359Z,6.10
2019-01-12T19:32:42.791Z,6.20
2019-01-12T19:35:11.295Z,6.10
2019-01-12T19:37:39.724Z,6.10
2019-01-12T19:40:13.380Z,6.10
2019-01-12T19:42:41.815Z,6.20
2019-01-12T19:45:12.456Z,6.10
2019-01-12T19:47:40.895Z,6.10
2019-01-12T19:50:12.952Z,6.10
2019-01-12T19:52:41.347Z,6.10
2019-01-12T19:55:09.859Z,6.10
2019-01-12T19:57:38.334Z,6.10
2019-01-12T20:00:12.952Z,6.10
2019-01-12T20:02:41.382Z,6.10
2019-01-12T20:05:09.917Z,6.10
2019-01-12T20:07:38.347Z,6.10
2019-01-12T20:10:10.136Z,6.10
2019-01-12T20:12:38.796Z,6.10
2019-01-12T20:15:10.464Z,6.10
2019-01-12T20:17:38.893Z,6.10
2019-01-12T20:20:10.225Z,6.00
2019-01-12T20:22:38.633Z,6.00
2019-01-12T20:25:12.889Z,6.10
2019-01-12T20:27:41.304Z,6.00
2019-01-12T20:30:12.783Z,6.10
2019-01-12T20:33:02.178Z,6.10
2019-01-12T20:35:45.650Z,6.10
2019-01-12T20:38:19.790Z,6.10
2019-01-12T20:40:51.288Z,6.10
2019-01-12T20:43:22.762Z,6.00
2019-01-12T20:46:10.701Z,6.00
2019-01-12T20:48:56.996Z,6.00
2019-01-12T20:51:46.103Z,6.00
2019-01-12T20:54:23.345Z,6.00
2019-01-12T20:57:06.639Z,5.90
2019-01-12T20:59:38.112Z,5.90
2019-01-12T21:02:12.542Z,5.90
2019-01-12T21:05:01.792Z,5.80
2019-01-12T21:07:47.488Z,5.80
2019-01-12T21:10:27.574Z,5.80
2019-01-12T21:13:32.052Z,5.70
2019-01-12T21:16:03.876Z,5.70
2019-01-12T21:18:32.341Z,5.60
2019-01-12T21:21:00.740Z,5.60
2019-01-12T21:23:29.167Z,5.50
2019-01-12T21:25:57.587Z,5.60
2019-01-12T21:28:25.992Z,5.50
2019-01-12T21:30:54.424Z,5.50
2019-01-12T21:33:22.838Z,5.50
2019-01-12T21:35:51.294Z,5.50
2019-01-12T21:38:19.707Z,5.50
2019-01-12T21:40:48.149Z,5.40
2019-01-12T21:43:16.629Z,5.40
2019-01-12T21:45:45.027Z,5.30
2019-01-12T21:48:13.464Z,5.30
2019-01-12T21:50:42.608Z,5.30
2019-01-12T21:53:11.049Z,5.20
2019-01-12T21:55:39.464Z,5.20
2019-01-12T21:58:07.904Z,5.10
2019-01-12T22:00:36.328Z,5.10
2019-01-12T22:03:04.976Z,5.10
2019-01-12T22:05:33.372Z,5.10
2019-01-12T22:08:01.821Z,5.10
2019-01-12T22:10:30.227Z,5.00
2019-01-12T22:12:58.624Z,5.00
2019-01-12T22:15:27.056Z,5.00
2019-01-12T22:17:55.456Z,5.00
2019-01-12T22:20:23.884Z,4.90
2019-01-12T22:22:52.296Z,4.90
2019-01-12T22:25:20.773Z,4.90
2019-01-12T22:27:49.208Z,4.90
2019-01-12T22:30:18.785Z,4.90
2019-01-12T22:32:47.300Z,4.90
2019-01-12T22:35:15.753Z,4.90
2019-01-12T22:37:44.235Z,4.90
2019-01-12T22:40:15.712Z,4.90
2019-01-12T22:42:44.211Z,4.90
2019-01-12T22:45:12.679Z,4.90
2019-01-12T22:47:41.106Z,4.90
2019-01-12T22:50:12.561Z,4.90
2019-01-12T22:52:41.153Z,4.90
2019-01-12T22:55:11.780Z,4.90
2019-01-12T22:57:40.200Z,4.90
2019-01-12T23:00:32.491Z,5.00
2019-01-12T23:03:00.990Z,5.00
2019-01-12T23:05:29.420Z,5.00
2019-01-12T23:07:57.899Z,5.00
2019-01-12T23:10:26.331Z,5.00
2019-01-12T23:12:54.728Z,5.00
2019-01-12T23:15:23.151Z,5.10
2019-01-12T23:17:51.576Z,5.10
2019-01-12T23:20:20.048Z,5.10
2019-01-12T23:22:48.463Z,5.20
2019-01-12T23:25:16.880Z,5.20
2019-01-12T23:27:45.303Z,5.30
2019-01-12T23:30:14.936Z,5.30
2019-01-12T23:32:43.350Z,5.30
2019-01-12T23:35:12.403Z,5.30
2019-01-12T23:37:41.062Z,5.40
2019-01-12T23:40:14.148Z,5.40
2019-01-12T23:42:42.823Z,5.50
2019-01-12T23:45:13.629Z,5.50
2019-01-12T23:47:42.057Z,5.50
2019-01-12T23:50:14.308Z,5.60
2019-01-12T23:52:42.724Z,5.60
2019-01-12T23:55:11.472Z,5.60
2019-01-12T23:57:39.980Z,5.70
